createdAt,value
2018-09-08T00:02:05.575Z,16.50
2018-09-08T00:04:33.129Z,16.50
2018-09-08T00:07:06.426Z,16.60
2018-09-08T00:09:34.315Z,16.70
2018-09-08T00:12:01.896Z,16.70
2018-09-08T00:14:29.345Z,16.60
2018-09-08T00:17:02.727Z,16.60
2018-09-08T00:19:35.939Z,16.70
2018-09-08T00:22:09.128Z,16.70
2018-09-08T00:24:42.409Z,16.70
2018-09-08T00:27:09.588Z,16.60
2018-09-08T00:29:43.085Z,16.70
2018-09-08T00:32:12.621Z,16.60
2018-09-08T00:34:40.570Z,16.60
2018-09-08T00:37:08.667Z,16.50
2018-09-08T00:39:36.274Z,16.50
2018-09-08T00:42:04.238Z,16.50
2018-09-08T00:44:31.839Z,16.50
2018-09-08T00:46:59.531Z,16.50
2018-09-08T00:49:27.061Z,16.40
2018-09-08T00:51:54.703Z,16.40
2018-09-08T00:54:22.328Z,16.40
2018-09-08T00:56:50.023Z,16.40
2018-09-08T00:59:17.560Z,16.40
2018-09-08T01:01:45.201Z,16.40
2018-09-08T01:04:12.821Z,16.30
2018-09-08T01:06:40.957Z,16.30
2018-09-08T01:09:08.762Z,16.30
2018-09-08T01:11:36.388Z,16.30
2018-09-08T01:14:04.305Z,16.40
2018-09-08T01:16:31.847Z,16.30
2018-09-08T01:19:00.222Z,16.30
2018-09-08T01:21:30.564Z,16.30
2018-09-08T01:23:59.137Z,16.30
2018-09-08T01:26:26.915Z,16.20
2018-09-08T01:28:54.615Z,16.20
2018-09-08T01:31:22.386Z,16.20
2018-09-08T01:33:50.230Z,16.10
2018-09-08T01:36:17.828Z,16.10
2018-09-08T01:38:45.705Z,16.20
2018-09-08T01:41:13.377Z,16.30
2018-09-08T01:43:40.935Z,16.30
2018-09-08T01:46:09.240Z,16.20
2018-09-08T01:48:37.282Z,16.20
2018-09-08T01:51:05.031Z,16.10
2018-09-08T01:53:33.404Z,16.10
2018-09-08T01:56:00.996Z,15.90
2018-09-08T01:58:28.912Z,15.80
2018-09-08T02:00:56.541Z,15.80
2018-09-08T02:03:24.169Z,15.80
2018-09-08T02:05:52.059Z,15.80
2018-09-08T02:08:19.740Z,15.70
2018-09-08T02:10:47.830Z,15.60
2018-09-08T02:13:15.434Z,15.60
2018-09-08T02:15:43.197Z,15.40
2018-09-08T02:18:11.536Z,15.30
2018-09-08T02:20:39.239Z,15.30
2018-09-08T02:23:06.907Z,15.20
2018-09-08T02:25:34.557Z,15.30
2018-09-08T02:28:02.238Z,15.30
2018-09-08T02:30:29.778Z,15.20
2018-09-08T02:32:58.488Z,15.00
2018-09-08T02:35:26.109Z,14.80
2018-09-08T02:37:53.745Z,14.80
2018-09-08T02:40:21.569Z,14.80
2018-09-08T02:42:49.867Z,14.70
2018-09-08T02:45:17.493Z,14.50
2018-09-08T02:47:45.126Z,14.30
2018-09-08T02:50:34.091Z,14.30
2018-09-08T02:53:01.100Z,14.30
2018-09-08T02:55:28.076Z,14.20
2018-09-08T02:57:54.964Z,14.10
2018-09-08T03:00:21.393Z,14.10
2018-09-08T03:02:47.807Z,13.90
2018-09-08T03:05:14.396Z,13.90
2018-09-08T03:07:40.848Z,13.80
2018-09-08T03:10:07.286Z,13.80
2018-09-08T03:12:33.719Z,13.70
2018-09-08T03:15:00.190Z,13.70
2018-09-08T03:17:26.645Z,13.70
2018-09-08T03:19:53.191Z,13.70
2018-09-08T03:22:19.763Z,13.60
2018-09-08T03:24:46.306Z,13.50
2018-09-08T03:27:12.761Z,13.40
2018-09-08T03:29:39.211Z,13.30
2018-09-08T03:32:05.627Z,13.40
2018-09-08T03:34:32.089Z,13.40
2018-09-08T03:36:58.674Z,13.30
2018-09-08T03:39:25.144Z,13.20
2018-09-08T03:41:51.600Z,13.20
2018-09-08T03:44:18.682Z,13.10
2018-09-08T03:46:45.124Z,13.20
2018-09-08T03:49:11.599Z,13.20
2018-09-08T03:51:38.483Z,13.30
2018-09-08T03:54:04.987Z,13.20
2018-09-08T03:56:31.485Z,13.20
2018-09-08T03:58:57.939Z,13.20
2018-09-08T04:01:24.533Z,13.20
2018-09-08T04:03:52.200Z,13.20
2018-09-08T04:06:19.961Z,13.10
2018-09-08T04:08:47.579Z,13.00
2018-09-08T04:11:15.274Z,13.10
2018-09-08T04:13:43.193Z,13.10
2018-09-08T04:16:11.427Z,13.00
2018-09-08T04:18:39.072Z,12.90
2018-09-08T04:21:06.658Z,12.80
2018-09-08T04:23:34.572Z,12.70
2018-09-08T04:26:02.459Z,12.80
2018-09-08T04:28:30.617Z,12.70
2018-09-08T04:30:58.946Z,12.70
2018-09-08T04:33:26.532Z,12.60
2018-09-08T04:35:54.111Z,12.70
2018-09-08T04:38:21.862Z,12.60
2018-09-08T04:40:49.475Z,12.50
2018-09-08T04:43:17.026Z,12.50
2018-09-08T04:45:44.659Z,12.50
2018-09-08T04:48:12.400Z,12.50
2018-09-08T04:50:39.948Z,12.60
2018-09-08T04:53:07.907Z,12.60
2018-09-08T04:55:36.517Z,12.60
2018-09-08T04:58:04.688Z,12.50
2018-09-08T05:00:32.232Z,12.40
2018-09-08T05:03:00.219Z,12.40
2018-09-08T05:05:28.611Z,12.40
2018-09-08T05:07:56.196Z,12.30
2018-09-08T05:10:23.744Z,12.40
2018-09-08T05:12:51.399Z,12.40
2018-09-08T05:15:19.075Z,12.30
2018-09-08T05:17:46.846Z,12.30
2018-09-08T05:20:14.336Z,12.40
2018-09-08T05:22:41.951Z,12.40
2018-09-08T05:25:09.538Z,12.40
2018-09-08T05:27:37.084Z,12.40
2018-09-08T05:30:05.252Z,12.50
2018-09-08T05:32:33.024Z,12.50
2018-09-08T05:35:00.868Z,12.60
2018-09-08T05:37:28.431Z,12.50
2018-09-08T05:39:56.000Z,12.50
2018-09-08T05:42:23.869Z,12.60
2018-09-08T05:44:51.480Z,12.60
2018-09-08T05:47:19.017Z,12.70
2018-09-08T05:49:46.596Z,12.70
2018-09-08T05:52:14.231Z,12.70
2018-09-08T05:54:41.865Z,12.60
2018-09-08T05:57:09.453Z,12.70
2018-09-08T05:59:37.169Z,12.70
2018-09-08T06:02:05.220Z,12.70
2018-09-08T06:04:32.906Z,12.70
2018-09-08T06:07:05.972Z,12.70
2018-09-08T06:09:34.558Z,12.70
2018-09-08T06:12:02.122Z,12.60
2018-09-08T06:14:31.116Z,12.70
2018-09-08T06:16:59.041Z,12.70
2018-09-08T06:19:26.863Z,12.70
2018-09-08T06:21:54.748Z,12.70
2018-09-08T06:24:22.322Z,12.70
2018-09-08T06:26:50.148Z,12.70
2018-09-08T06:29:18.112Z,12.80
2018-09-08T06:31:46.211Z,12.80
2018-09-08T06:34:14.175Z,12.90
2018-09-08T06:36:42.074Z,13.00
2018-09-08T06:39:11.829Z,13.00
2018-09-08T06:41:39.567Z,13.10
2018-09-08T06:44:07.497Z,13.20
2018-09-08T06:46:35.407Z,13.30
2018-09-08T06:49:03.709Z,13.40
2018-09-08T06:51:31.645Z,13.50
2018-09-08T06:53:59.229Z,13.60
2018-09-08T06:56:26.869Z,13.60
2018-09-08T06:58:56.033Z,13.80
2018-09-08T07:01:24.318Z,13.80
2018-09-08T07:03:52.291Z,13.90
2018-09-08T07:06:20.107Z,14.20
2018-09-08T07:08:47.718Z,14.40
2018-09-08T07:11:15.481Z,14.60
2018-09-08T07:13:43.321Z,14.70
2018-09-08T07:16:11.529Z,14.90
2018-09-08T07:18:39.252Z,15.10
2018-09-08T07:21:07.059Z,15.30
2018-09-08T07:23:34.679Z,15.40
2018-09-08T07:26:02.955Z,15.40
2018-09-08T07:28:31.951Z,15.50
2018-09-08T07:30:59.724Z,15.70
2018-09-08T07:33:28.104Z,15.90
2018-09-08T07:35:56.011Z,16.00
2018-09-08T07:38:24.176Z,16.20
2018-09-08T07:40:52.205Z,16.40
2018-09-08T07:43:20.125Z,16.50
2018-09-08T07:45:48.474Z,16.70
2018-09-08T07:48:16.857Z,16.70
2018-09-08T07:50:45.125Z,16.80
2018-09-08T07:53:12.952Z,16.70
2018-09-08T07:55:40.654Z,16.70
2018-09-08T07:58:08.454Z,16.90
2018-09-08T08:00:36.217Z,17.00
2018-09-08T08:03:04.088Z,17.10
2018-09-08T08:05:31.846Z,17.00
2018-09-08T08:07:59.558Z,17.00
2018-09-08T08:10:27.382Z,17.00
2018-09-08T08:12:57.075Z,17.00
2018-09-08T08:15:24.828Z,17.10
2018-09-08T08:17:52.516Z,17.20
2018-09-08T08:20:20.332Z,17.40
2018-09-08T08:22:48.104Z,17.70
2018-09-08T08:25:15.852Z,17.90
2018-09-08T08:27:43.510Z,18.10
2018-09-08T08:30:11.174Z,18.00
2018-09-08T08:32:38.757Z,17.90
2018-09-08T08:35:06.551Z,17.90
2018-09-08T08:37:34.286Z,17.80
2018-09-08T08:40:02.089Z,17.70
2018-09-08T08:42:29.770Z,17.90
2018-09-08T08:44:57.640Z,18.20
2018-09-08T08:47:26.518Z,18.40
2018-09-08T08:50:05.513Z,18.60
2018-09-08T08:52:44.592Z,18.70
2018-09-08T08:55:12.665Z,18.70
2018-09-08T08:57:40.345Z,18.70
2018-09-08T09:00:08.048Z,18.80
2018-09-08T09:02:35.742Z,18.80
2018-09-08T09:05:03.715Z,19.00
2018-09-08T09:07:31.536Z,19.20
2018-09-08T09:10:06.239Z,19.20
2018-09-08T09:12:34.282Z,19.30
2018-09-08T09:15:02.599Z,19.40
2018-09-08T09:17:30.152Z,19.50
2018-09-08T09:20:09.149Z,19.70
2018-09-08T09:22:48.220Z,19.70
2018-09-08T09:25:15.987Z,19.70
2018-09-08T09:27:47.970Z,19.50
2018-09-08T09:30:16.395Z,19.40
2018-09-08T09:32:44.201Z,19.40
2018-09-08T09:35:18.196Z,19.60
2018-09-08T09:37:45.864Z,19.80
2018-09-08T09:40:14.835Z,19.80
2018-09-08T09:42:42.486Z,19.80
2018-09-08T09:45:10.943Z,20.00
2018-09-08T09:47:38.772Z,19.70
2018-09-08T09:50:07.863Z,19.90
2018-09-08T09:52:35.698Z,20.10
2018-09-08T09:55:03.451Z,20.30
2018-09-08T09:57:31.236Z,20.30
2018-09-08T09:59:59.000Z,20.40
2018-09-08T10:02:43.339Z,20.50
2018-09-08T10:05:12.829Z,20.40
2018-09-08T10:07:40.617Z,20.10
2018-09-08T10:10:10.387Z,20.20
2018-09-08T10:12:38.679Z,20.30
2018-09-08T10:15:07.345Z,20.60
2018-09-08T10:17:35.555Z,20.70
2018-09-08T10:20:03.386Z,20.80
2018-09-08T10:22:31.090Z,21.00
2018-09-08T10:24:58.739Z,21.00
2018-09-08T10:27:26.441Z,20.80
2018-09-08T10:29:54.531Z,20.90
2018-09-08T10:32:22.388Z,20.90
2018-09-08T10:34:50.333Z,20.90
2018-09-08T10:37:18.052Z,20.80
2018-09-08T10:39:45.947Z,20.80
2018-09-08T10:42:13.757Z,20.90
2018-09-08T10:44:41.540Z,21.10
2018-09-08T10:47:09.775Z,21.10
2018-09-08T10:49:37.469Z,20.90
2018-09-08T10:53:12.935Z,21.10
2018-09-08T10:55:40.699Z,21.30
2018-09-08T10:58:08.649Z,21.20
2018-09-08T11:00:37.147Z,21.10
2018-09-08T11:03:04.791Z,21.00
2018-09-08T11:05:32.480Z,21.10
2018-09-08T11:08:00.161Z,21.10
2018-09-08T11:10:27.982Z,21.10
2018-09-08T11:12:56.091Z,21.30
2018-09-08T11:15:24.000Z,21.00
2018-09-08T11:17:51.884Z,20.90
2018-09-08T11:20:19.612Z,20.70
2018-09-08T11:22:47.395Z,20.70
2018-09-08T11:25:15.494Z,21.00
2018-09-08T11:27:43.885Z,21.40
2018-09-08T11:30:11.878Z,21.60
2018-09-08T11:32:39.803Z,21.20
2018-09-08T11:35:07.950Z,21.10
2018-09-08T11:37:35.956Z,20.70
2018-09-08T11:40:03.793Z,20.50
2018-09-08T11:42:31.483Z,20.50
2018-09-08T11:45:00.385Z,20.20
2018-09-08T11:47:28.962Z,20.50
2018-09-08T11:49:56.906Z,20.70
2018-09-08T11:52:24.686Z,20.40
2018-09-08T11:54:52.529Z,20.80
2018-09-08T11:57:20.233Z,21.30
2018-09-08T11:59:47.956Z,21.60
2018-09-08T12:02:15.928Z,21.90
2018-09-08T12:04:43.605Z,21.90
2018-09-08T12:07:11.278Z,21.40
2018-09-08T12:09:39.129Z,20.80
2018-09-08T12:12:06.881Z,20.50
2018-09-08T12:14:35.258Z,20.80
2018-09-08T12:17:03.350Z,21.20
2018-09-08T12:19:31.524Z,21.40
2018-09-08T12:21:59.231Z,21.40
2018-09-08T12:24:26.941Z,21.50
2018-09-08T12:26:54.663Z,21.30
2018-09-08T12:29:22.347Z,21.30
2018-09-08T12:31:50.117Z,21.30
2018-09-08T12:34:18.189Z,21.50
2018-09-08T12:36:45.829Z,21.50
2018-09-08T12:39:13.482Z,21.40
2018-09-08T12:41:41.323Z,21.70
2018-09-08T12:44:09.161Z,22.10
2018-09-08T12:46:37.515Z,22.10
2018-09-08T12:49:05.155Z,22.20
2018-09-08T12:51:32.914Z,22.30
2018-09-08T12:54:01.216Z,22.50
2018-09-08T12:56:28.934Z,22.60
2018-09-08T12:58:56.922Z,22.70
2018-09-08T13:01:25.227Z,22.40
2018-09-08T13:03:52.946Z,21.90
2018-09-08T13:06:20.741Z,21.50
2018-09-08T13:08:49.021Z,21.50
2018-09-08T13:11:16.786Z,21.60
2018-09-08T13:13:44.868Z,22.10
2018-09-08T13:16:12.599Z,22.20
2018-09-08T13:18:40.452Z,22.40
2018-09-08T13:21:08.133Z,22.70
2018-09-08T13:23:36.005Z,22.80
2018-09-08T13:26:03.650Z,22.90
2018-09-08T13:28:31.456Z,23.20
2018-09-08T13:30:59.554Z,23.20
2018-09-08T13:33:27.603Z,23.30
2018-09-08T13:35:55.374Z,23.10
2018-09-08T13:38:23.155Z,22.80
2018-09-08T13:40:50.897Z,23.00
2018-09-08T13:43:18.941Z,22.80
2018-09-08T13:45:46.677Z,22.50
2018-09-08T13:48:14.389Z,22.50
2018-09-08T13:50:48.904Z,22.60
2018-09-08T13:53:16.557Z,22.90
2018-09-08T13:55:44.296Z,23.30
2018-09-08T13:58:11.926Z,23.50
2018-09-08T14:00:40.261Z,23.70
2018-09-08T14:03:09.394Z,23.90
2018-09-08T14:05:37.191Z,24.00
2018-09-08T14:08:07.838Z,23.80
2018-09-08T14:10:35.564Z,23.40
2018-09-08T14:13:03.248Z,23.00
2018-09-08T14:15:30.981Z,23.00
2018-09-08T14:17:58.614Z,23.00
2018-09-08T14:20:26.691Z,22.80
2018-09-08T14:22:54.470Z,22.90
2018-09-08T14:25:22.229Z,22.80
2018-09-08T14:27:50.583Z,22.80
2018-09-08T14:30:18.338Z,22.90
2018-09-08T14:32:46.114Z,22.70
2018-09-08T14:35:13.962Z,22.60
2018-09-08T14:37:41.624Z,22.70
2018-09-08T14:40:09.396Z,22.80
2018-09-08T14:42:37.687Z,22.70
2018-09-08T14:45:05.564Z,22.40
2018-09-08T14:47:33.440Z,22.30
2018-09-08T14:50:02.027Z,22.50
2018-09-08T14:52:30.140Z,22.70
2018-09-08T14:54:57.847Z,22.80
2018-09-08T14:57:25.461Z,22.90
2018-09-08T14:59:53.356Z,23.10
2018-09-08T15:02:21.292Z,23.20
2018-09-08T15:04:49.327Z,23.10
2018-09-08T15:07:16.928Z,23.00
2018-09-08T15:09:45.902Z,22.80
2018-09-08T15:12:13.660Z,22.80
2018-09-08T15:14:41.337Z,22.70
2018-09-08T15:17:09.102Z,22.80
2018-09-08T15:19:37.601Z,22.90
2018-09-08T15:22:05.405Z,22.80
2018-09-08T15:24:33.116Z,22.70
2018-09-08T15:27:02.269Z,22.60
2018-09-08T15:29:30.324Z,22.50
2018-09-08T15:31:58.519Z,22.70
2018-09-08T15:34:26.272Z,22.70
2018-09-08T15:36:54.024Z,22.80
2018-09-08T15:39:21.685Z,22.60
2018-09-08T15:41:49.397Z,22.30
2018-09-08T15:44:17.538Z,22.40
2018-09-08T15:46:45.932Z,22.60
2018-09-08T15:49:13.679Z,22.60
2018-09-08T15:51:41.624Z,22.50
2018-09-08T15:54:09.405Z,22.60
2018-09-08T15:56:37.320Z,22.70
2018-09-08T15:59:04.920Z,22.70
2018-09-08T16:01:32.633Z,22.80
2018-09-08T16:04:00.606Z,22.80
2018-09-08T16:06:28.774Z,22.80
2018-09-08T16:08:57.793Z,22.70
2018-09-08T16:11:25.522Z,22.70
2018-09-08T16:13:53.404Z,22.70
2018-09-08T16:16:21.465Z,22.70
2018-09-08T16:18:49.481Z,22.80
2018-09-08T16:21:17.629Z,22.90
2018-09-08T16:23:45.453Z,22.80
2018-09-08T16:26:13.117Z,22.80
2018-09-08T16:28:41.087Z,22.80
2018-09-08T16:31:08.977Z,22.80
2018-09-08T16:33:36.701Z,22.80
2018-09-08T16:36:04.468Z,22.70
2018-09-08T16:38:32.472Z,22.60
2018-09-08T16:41:00.212Z,22.50
2018-09-08T16:43:27.971Z,22.40
2018-09-08T16:45:56.245Z,22.40
2018-09-08T16:48:24.364Z,22.40
2018-09-08T16:50:52.047Z,22.30
2018-09-08T16:53:20.402Z,22.30
2018-09-08T16:55:48.419Z,22.20
2018-09-08T16:58:16.748Z,22.20
2018-09-08T17:00:44.603Z,22.00
2018-09-08T17:03:12.529Z,21.90
2018-09-08T17:05:41.218Z,21.80
2018-09-08T17:08:13.971Z,21.70
2018-09-08T17:10:41.882Z,21.60
2018-09-08T17:13:09.798Z,21.50
2018-09-08T17:15:37.488Z,21.30
2018-09-08T17:18:05.487Z,21.10
2018-09-08T17:20:33.217Z,20.90
2018-09-08T17:23:01.141Z,20.60
2018-09-08T17:25:28.914Z,20.50
2018-09-08T17:27:56.625Z,20.40
2018-09-08T17:30:24.389Z,20.10
2018-09-08T17:32:52.792Z,20.00
2018-09-08T17:35:20.533Z,20.00
2018-09-08T17:37:48.256Z,19.90
2018-09-08T17:40:16.022Z,19.70
2018-09-08T17:42:43.782Z,19.60
2018-09-08T17:45:11.845Z,19.50
2018-09-08T17:47:39.560Z,19.30
2018-09-08T17:50:07.552Z,19.00
2018-09-08T17:52:35.440Z,18.90
2018-09-08T17:55:03.337Z,18.80
2018-09-08T17:57:31.212Z,18.90
2018-09-08T17:59:59.049Z,18.80
2018-09-08T18:02:26.671Z,18.60
2018-09-08T18:04:55.094Z,18.50
2018-09-08T18:07:22.861Z,18.40
2018-09-08T18:09:50.547Z,18.30
2018-09-08T18:12:18.381Z,18.30
2018-09-08T18:14:46.113Z,18.20
2018-09-08T18:17:13.859Z,18.20
2018-09-08T18:19:41.643Z,18.10
2018-09-08T18:22:09.585Z,18.10
2018-09-08T18:24:37.369Z,17.90
2018-09-08T18:27:05.303Z,17.80
2018-09-08T18:29:33.217Z,17.70
2018-09-08T18:32:01.011Z,17.60
2018-09-08T18:34:28.664Z,17.60
2018-09-08T18:36:56.511Z,17.50
2018-09-08T18:39:24.527Z,17.50
2018-09-08T18:41:52.252Z,17.50
2018-09-08T18:44:19.892Z,17.50
2018-09-08T18:46:47.935Z,17.40
2018-09-08T18:49:16.054Z,17.20
2018-09-08T18:51:44.014Z,17.00
2018-09-08T18:54:12.457Z,16.80
2018-09-08T18:56:40.483Z,16.60
2018-09-08T18:59:08.182Z,16.50
2018-09-08T19:01:35.888Z,16.30
2018-09-08T19:04:03.701Z,16.10
2018-09-08T19:06:31.428Z,16.00
2018-09-08T19:08:59.152Z,16.10
2018-09-08T19:11:26.922Z,16.10
2018-09-08T19:13:54.809Z,15.90
2018-09-08T19:16:22.413Z,15.90
2018-09-08T19:18:50.136Z,15.90
2018-09-08T19:21:17.861Z,16.00
2018-09-08T19:23:48.616Z,16.00
2018-09-08T19:26:16.533Z,16.00
2018-09-08T19:28:46.841Z,16.00
2018-09-08T19:31:14.625Z,16.00
2018-09-08T19:33:42.409Z,15.90
2018-09-08T19:36:10.376Z,15.90
2018-09-08T19:38:38.127Z,15.90
2018-09-08T19:41:05.852Z,15.80
2018-09-08T19:43:33.958Z,15.80
2018-09-08T19:46:06.432Z,15.80
2018-09-08T19:48:34.242Z,15.70
2018-09-08T19:51:01.992Z,15.60
2018-09-08T19:54:02.902Z,15.60
2018-09-08T19:56:36.388Z,15.60
2018-09-08T19:59:04.923Z,15.40
2018-09-08T20:01:32.669Z,15.30
2018-09-08T20:04:00.486Z,15.30
2018-09-08T20:06:28.320Z,15.20
2018-09-08T20:08:56.084Z,15.00
2018-09-08T20:11:24.398Z,15.00
2018-09-08T20:13:52.747Z,15.20
2018-09-08T20:16:20.538Z,15.20
2018-09-08T20:18:48.482Z,15.00
2018-09-08T20:21:16.180Z,15.10
2018-09-08T20:23:43.877Z,15.20
2018-09-08T20:26:12.107Z,15.10
2018-09-08T20:28:40.452Z,15.00
2018-09-08T20:31:08.099Z,15.10
2018-09-08T20:33:35.750Z,15.10
2018-09-08T20:36:03.462Z,15.00
2018-09-08T20:38:31.386Z,15.00
2018-09-08T20:40:59.045Z,14.80
2018-09-08T20:43:27.315Z,14.70
2018-09-08T20:45:54.993Z,14.80
2018-09-08T20:48:22.672Z,14.80
2018-09-08T20:50:51.115Z,14.80
2018-09-08T20:53:18.790Z,14.80
2018-09-08T20:55:46.412Z,14.60
2018-09-08T20:58:14.134Z,14.60
2018-09-08T21:00:41.871Z,14.60
2018-09-08T21:03:09.661Z,14.70
2018-09-08T21:05:38.350Z,14.60
2018-09-08T21:08:06.280Z,14.50
2018-09-08T21:10:33.940Z,14.60
2018-09-08T21:13:01.623Z,14.60
2018-09-08T21:15:29.388Z,14.70
2018-09-08T21:17:57.046Z,14.70
2018-09-08T21:20:24.740Z,14.60
2018-09-08T21:22:52.482Z,14.60
2018-09-08T21:25:20.241Z,14.60
2018-09-08T21:27:48.141Z,14.60
2018-09-08T21:30:15.909Z,14.60
2018-09-08T21:32:43.652Z,14.60
2018-09-08T21:35:16.876Z,14.60
2018-09-08T21:37:44.624Z,14.60
2018-09-08T21:40:12.401Z,14.60
2018-09-08T21:42:40.076Z,14.60
2018-09-08T21:45:08.517Z,14.60
2018-09-08T21:47:36.164Z,14.60
2018-09-08T21:50:03.930Z,14.60
2018-09-08T21:52:31.677Z,14.50
2018-09-08T21:54:59.600Z,14.60
2018-09-08T21:57:27.325Z,14.60
2018-09-08T21:59:55.127Z,14.50
2018-09-08T22:02:22.782Z,14.40
2018-09-08T22:04:50.947Z,14.50
2018-09-08T22:07:18.696Z,14.50
2018-09-08T22:09:46.347Z,14.50
2018-09-08T22:12:14.194Z,14.50
2018-09-08T22:14:42.120Z,14.50
2018-09-08T22:17:10.188Z,14.50
2018-09-08T22:19:37.910Z,14.50
2018-09-08T22:22:06.311Z,14.50
2018-09-08T22:24:34.270Z,14.50
2018-09-08T22:27:02.013Z,14.50
2018-09-08T22:29:29.624Z,14.40
2018-09-08T22:31:57.472Z,14.50
2018-09-08T22:34:25.890Z,14.40
2018-09-08T22:36:53.601Z,14.30
2018-09-08T22:39:21.294Z,14.30
2018-09-08T22:41:49.117Z,14.30
2018-09-08T22:44:16.847Z,14.30
2018-09-08T22:46:44.715Z,14.30
2018-09-08T22:49:12.505Z,14.30
2018-09-08T22:51:40.596Z,14.30
2018-09-08T22:54:08.245Z,14.20
2018-09-08T22:56:39.997Z,14.20
2018-09-08T22:59:07.772Z,14.20
2018-09-08T23:01:36.421Z,14.20
2018-09-08T23:04:04.622Z,14.00
2018-09-08T23:06:32.290Z,13.90
2018-09-08T23:09:00.144Z,14.00
2018-09-08T23:11:27.774Z,14.10
2018-09-08T23:13:55.666Z,14.00
2018-09-08T23:16:23.345Z,14.00
2018-09-08T23:18:51.060Z,14.00
2018-09-08T23:21:18.656Z,13.90
2018-09-08T23:23:47.169Z,13.80
2018-09-08T23:26:15.089Z,13.70
2018-09-08T23:28:43.229Z,13.80
2018-09-08T23:31:11.434Z,13.70
2018-09-08T23:33:39.598Z,13.70
2018-09-08T23:36:07.628Z,13.80
2018-09-08T23:38:35.260Z,13.80
2018-09-08T23:41:04.135Z,13.80
2018-09-08T23:43:31.767Z,13.70
2018-09-08T23:45:59.754Z,13.80
2018-09-08T23:48:27.281Z,13.70
2018-09-08T23:50:54.815Z,13.50
2018-09-08T23:53:22.530Z,13.50
2018-09-08T23:55:50.752Z,13.50
2018-09-08T23:58:18.668Z,13.60
